sensor_id;sensor_type;location;lat;lon;timestamp;P1;durP1;ratioP1;P2;durP2;ratioP2
68379;SDS011;57711;53.196;19.638;2023-11-19T00:00:36;209.60;;;70.80;;
68379;SDS011;57711;53.196;19.638;2023-11-19T00:03:23;179.50;;;63.40;;
68379;SDS011;57711;53.196;19.638;2023-11-19T00:05:49;208.60;;;79.00;;
68379;SDS011;57711;53.196;19.638;2023-11-19T00:08:16;161.60;;;66.50;;
68379;SDS011;57711;53.196;19.638;2023-11-19T00:10:42;113.90;;;48.40;;
68379;SDS011;57711;53.196;19.638;2023-11-19T00:13:09;94.30;;;42.90;;
68379;SDS011;57711;53.196;19.638;2023-11-19T00:15:36;92.00;;;40.10;;
68379;SDS011;57711;53.196;19.638;2023-11-19T00:18:02;59.50;;;29.90;;
68379;SDS011;57711;53.196;19.638;2023-11-19T00:20:31;53.30;;;25.20;;
68379;SDS011;57711;53.196;19.638;2023-11-19T00:22:58;54.50;;;25.20;;
68379;SDS011;57711;53.196;19.638;2023-11-19T00:25:24;58.00;;;27.20;;
68379;SDS011;57711;53.196;19.638;2023-11-19T00:27:51;66.90;;;28.90;;
68379;SDS011;57711;53.196;19.638;2023-11-19T00:30:19;133.90;;;39.50;;
68379;SDS011;57711;53.196;19.638;2023-11-19T00:32:46;198.90;;;61.10;;
68379;SDS011;57711;53.196;19.638;2023-11-19T00:35:12;190.70;;;57.60;;
68379;SDS011;57711;53.196;19.638;2023-11-19T00:37:42;85.60;;;32.90;;
68379;SDS011;57711;53.196;19.638;2023-11-19T00:40:08;58.50;;;27.30;;
68379;SDS011;57711;53.196;19.638;2023-11-19T00:42:36;52.00;;;23.40;;
68379;SDS011;57711;53.196;19.638;2023-11-19T00:45:04;58.30;;;24.70;;
68379;SDS011;57711;53.196;19.638;2023-11-19T00:47:34;61.60;;;28.30;;
68379;SDS011;57711;53.196;19.638;2023-11-19T00:50:02;85.50;;;39.70;;
68379;SDS011;57711;53.196;19.638;2023-11-19T00:52:28;92.70;;;39.90;;
68379;SDS011;57711;53.196;19.638;2023-11-19T00:54:55;155.90;;;41.10;;
68379;SDS011;57711;53.196;19.638;2023-11-19T00:57:22;96.80;;;32.90;;
68379;SDS011;57711;53.196;19.638;2023-11-19T00:59:50;81.40;;;31.30;;
68379;SDS011;57711;53.196;19.638;2023-11-19T01:02:16;68.70;;;31.00;;
68379;SDS011;57711;53.196;19.638;2023-11-19T01:04:42;70.00;;;30.10;;
68379;SDS011;57711;53.196;19.638;2023-11-19T01:07:09;53.40;;;26.60;;
68379;SDS011;57711;53.196;19.638;2023-11-19T01:09:38;70.20;;;32.00;;
68379;SDS011;57711;53.196;19.638;2023-11-19T01:12:07;65.70;;;31.00;;
68379;SDS011;57711;53.196;19.638;2023-11-19T01:14:34;81.90;;;38.90;;
68379;SDS011;57711;53.196;19.638;2023-11-19T01:17:00;71.40;;;35.70;;
68379;SDS011;57711;53.196;19.638;2023-11-19T01:19:27;71.00;;;37.00;;
68379;SDS011;57711;53.196;19.638;2023-11-19T01:21:55;66.70;;;32.80;;
68379;SDS011;57711;53.196;19.638;2023-11-19T01:24:22;68.10;;;34.60;;
68379;SDS011;57711;53.196;19.638;2023-11-19T01:26:49;71.80;;;37.30;;
68379;SDS011;57711;53.196;19.638;2023-11-19T01:29:15;87.60;;;36.40;;
68379;SDS011;57711;53.196;19.638;2023-11-19T01:31:42;75.10;;;34.30;;
68379;SDS011;57711;53.196;19.638;2023-11-19T01:34:10;80.70;;;34.70;;
68379;SDS011;57711;53.196;19.638;2023-11-19T01:36:37;62.70;;;30.80;;
68379;SDS011;57711;53.196;19.638;2023-11-19T01:39:05;56.30;;;30.10;;
68379;SDS011;57711;53.196;19.638;2023-11-19T01:41:35;58.70;;;30.80;;
68379;SDS011;57711;53.196;19.638;2023-11-19T01:44:02;61.00;;;28.30;;
68379;SDS011;57711;53.196;19.638;2023-11-19T01:46:29;48.90;;;26.70;;
68379;SDS011;57711;53.196;19.638;2023-11-19T01:48:58;58.80;;;28.20;;
68379;SDS011;57711;53.196;19.638;2023-11-19T01:51:26;58.40;;;29.50;;
68379;SDS011;57711;53.196;19.638;2023-11-19T01:53:53;47.30;;;24.00;;
68379;SDS011;57711;53.196;19.638;2023-11-19T01:56:22;55.80;;;27.10;;
68379;SDS011;57711;53.196;19.638;2023-11-19T01:58:50;48.70;;;25.70;;
68379;SDS011;57711;53.196;19.638;2023-11-19T02:01:17;55.40;;;26.20;;
68379;SDS011;57711;53.196;19.638;2023-11-19T02:03:44;48.40;;;25.30;;
68379;SDS011;57711;53.196;19.638;2023-11-19T02:06:13;52.60;;;25.80;;
68379;SDS011;57711;53.196;19.638;2023-11-19T02:08:40;43.90;;;24.00;;
68379;SDS011;57711;53.196;19.638;2023-11-19T02:11:06;42.70;;;23.70;;
68379;SDS011;57711;53.196;19.638;2023-11-19T02:13:33;43.50;;;22.20;;
68379;SDS011;57711;53.196;19.638;2023-11-19T02:16:02;38.10;;;21.50;;
68379;SDS011;57711;53.196;19.638;2023-11-19T02:18:29;37.10;;;21.10;;
68379;SDS011;57711;53.196;19.638;2023-11-19T02:20:57;52.00;;;25.20;;
68379;SDS011;57711;53.196;19.638;2023-11-19T02:23:24;54.50;;;26.40;;
68379;SDS011;57711;53.196;19.638;2023-11-19T02:26:08;57.40;;;28.80;;
68379;SDS011;57711;53.196;19.638;2023-11-19T02:28:36;51.00;;;27.30;;
68379;SDS011;57711;53.196;19.638;2023-11-19T02:31:03;53.90;;;27.60;;
68379;SDS011;57711;53.196;19.638;2023-11-19T02:33:31;49.90;;;24.50;;
68379;SDS011;57711;53.196;19.638;2023-11-19T02:35:57;50.40;;;25.90;;
68379;SDS011;57711;53.196;19.638;2023-11-19T02:38:23;44.10;;;22.70;;
68379;SDS011;57711;53.196;19.638;2023-11-19T02:40:50;52.00;;;26.20;;
68379;SDS011;57711;53.196;19.638;2023-11-19T02:43:17;45.60;;;25.40;;
68379;SDS011;57711;53.196;19.638;2023-11-19T02:45:44;51.10;;;27.90;;
68379;SDS011;57711;53.196;19.638;2023-11-19T02:48:11;44.80;;;24.80;;
68379;SDS011;57711;53.196;19.638;2023-11-19T02:50:38;47.50;;;25.40;;
68379;SDS011;57711;53.196;19.638;2023-11-19T02:53:04;48.50;;;26.80;;
68379;SDS011;57711;53.196;19.638;2023-11-19T02:55:32;54.60;;;26.60;;
68379;SDS011;57711;53.196;19.638;2023-11-19T02:58:04;53.80;;;26.90;;
68379;SDS011;57711;53.196;19.638;2023-11-19T03:00:45;46.90;;;25.70;;
68379;SDS011;57711;53.196;19.638;2023-11-19T03:03:18;51.70;;;24.00;;
68379;SDS011;57711;53.196;19.638;2023-11-19T03:05:47;51.00;;;25.10;;
68379;SDS011;57711;53.196;19.638;2023-11-19T03:08:14;56.60;;;25.40;;
68379;SDS011;57711;53.196;19.638;2023-11-19T03:10:49;60.00;;;27.50;;
68379;SDS011;57711;53.196;19.638;2023-11-19T03:13:15;56.80;;;27.50;;
68379;SDS011;57711;53.196;19.638;2023-11-19T03:15:44;49.20;;;26.50;;
68379;SDS011;57711;53.196;19.638;2023-11-19T03:18:10;53.70;;;27.10;;
68379;SDS011;57711;53.196;19.638;2023-11-19T03:20:37;55.40;;;28.20;;
68379;SDS011;57711;53.196;19.638;2023-11-19T03:23:03;76.50;;;35.70;;
68379;SDS011;57711;53.196;19.638;2023-11-19T03:25:30;84.70;;;33.80;;
68379;SDS011;57711;53.196;19.638;2023-11-19T03:28:00;60.80;;;27.50;;
68379;SDS011;57711;53.196;19.638;2023-11-19T03:30:28;56.90;;;28.30;;
68379;SDS011;57711;53.196;19.638;2023-11-19T03:32:57;62.20;;;29.90;;
68379;SDS011;57711;53.196;19.638;2023-11-19T03:35:24;51.50;;;25.50;;
68379;SDS011;57711;53.196;19.638;2023-11-19T03:37:50;61.40;;;30.90;;
68379;SDS011;57711;53.196;19.638;2023-11-19T03:40:17;65.70;;;30.40;;
68379;SDS011;57711;53.196;19.638;2023-11-19T03:42:45;52.00;;;38.60;;
68379;SDS011;57711;53.196;19.638;2023-11-19T03:45:12;73.00;;;33.40;;
68379;SDS011;57711;53.196;19.638;2023-11-19T03:47:38;53.20;;;27.20;;
68379;SDS011;57711;53.196;19.638;2023-11-19T03:50:06;68.60;;;28.10;;
68379;SDS011;57711;53.196;19.638;2023-11-19T03:52:34;69.90;;;29.20;;
68379;SDS011;57711;53.196;19.638;2023-11-19T03:55:10;72.90;;;32.30;;
68379;SDS011;57711;53.196;19.638;2023-11-19T03:57:36;84.20;;;37.60;;
68379;SDS011;57711;53.196;19.638;2023-11-19T04:00:02;62.20;;;31.30;;
68379;SDS011;57711;53.196;19.638;2023-11-19T04:07:33;57.10;;;28.10;;
68379;SDS011;57711;53.196;19.638;2023-11-19T04:10:00;47.80;;;26.30;;
68379;SDS011;57711;53.196;19.638;2023-11-19T04:12:26;50.50;;;27.50;;
68379;SDS011;57711;53.196;19.638;2023-11-19T04:14:53;41.40;;;23.00;;
68379;SDS011;57711;53.196;19.638;2023-11-19T04:17:22;55.40;;;26.40;;
68379;SDS011;57711;53.196;19.638;2023-11-19T04:19:49;56.60;;;27.30;;
68379;SDS011;57711;53.196;19.638;2023-11-19T04:22:15;70.60;;;29.80;;
68379;SDS011;57711;53.196;19.638;2023-11-19T04:24:42;46.40;;;21.60;;
68379;SDS011;57711;53.196;19.638;2023-11-19T04:27:10;42.30;;;21.90;;
68379;SDS011;57711;53.196;19.638;2023-11-19T04:29:37;45.90;;;24.60;;
68379;SDS011;57711;53.196;19.638;2023-11-19T04:32:04;81.30;;;38.90;;
68379;SDS011;57711;53.196;19.638;2023-11-19T04:34:31;47.90;;;26.70;;
68379;SDS011;57711;53.196;19.638;2023-11-19T04:36:57;45.00;;;25.50;;
68379;SDS011;57711;53.196;19.638;2023-11-19T04:39:39;51.10;;;23.40;;
68379;SDS011;57711;53.196;19.638;2023-11-19T04:42:05;39.10;;;20.70;;
68379;SDS011;57711;53.196;19.638;2023-11-19T04:44:32;30.60;;;18.90;;
68379;SDS011;57711;53.196;19.638;2023-11-19T04:46:58;33.60;;;20.10;;
68379;SDS011;57711;53.196;19.638;2023-11-19T04:49:25;33.10;;;21.00;;
68379;SDS011;57711;53.196;19.638;2023-11-19T04:51:53;47.00;;;26.30;;
68379;SDS011;57711;53.196;19.638;2023-11-19T04:54:19;48.10;;;27.50;;
68379;SDS011;57711;53.196;19.638;2023-11-19T04:56:45;38.40;;;22.30;;
68379;SDS011;57711;53.196;19.638;2023-11-19T04:59:13;41.40;;;22.30;;
68379;SDS011;57711;53.196;19.638;2023-11-19T05:01:39;42.80;;;22.30;;
68379;SDS011;57711;53.196;19.638;2023-11-19T05:04:07;39.40;;;20.40;;
68379;SDS011;57711;53.196;19.638;2023-11-19T05:06:33;37.00;;;20.00;;
68379;SDS011;57711;53.196;19.638;2023-11-19T05:09:01;29.90;;;16.70;;
68379;SDS011;57711;53.196;19.638;2023-11-19T05:11:33;39.40;;;22.10;;
68379;SDS011;57711;53.196;19.638;2023-11-19T05:14:01;35.40;;;19.50;;
68379;SDS011;57711;53.196;19.638;2023-11-19T05:16:30;37.60;;;21.80;;
68379;SDS011;57711;53.196;19.638;2023-11-19T05:18:56;181.30;;;70.00;;
68379;SDS011;57711;53.196;19.638;2023-11-19T05:21:23;55.80;;;28.70;;
68379;SDS011;57711;53.196;19.638;2023-11-19T05:26:20;41.20;;;22.70;;
68379;SDS011;57711;53.196;19.638;2023-11-19T05:28:47;40.70;;;22.80;;
68379;SDS011;57711;53.196;19.638;2023-11-19T05:31:14;42.80;;;25.60;;
68379;SDS011;57711;53.196;19.638;2023-11-19T05:33:42;40.20;;;22.50;;
68379;SDS011;57711;53.196;19.638;2023-11-19T05:36:10;46.30;;;25.60;;
68379;SDS011;57711;53.196;19.638;2023-11-19T05:38:38;42.10;;;24.80;;
68379;SDS011;57711;53.196;19.638;2023-11-19T05:41:05;48.30;;;24.20;;
68379;SDS011;57711;53.196;19.638;2023-11-19T05:43:32;53.70;;;28.30;;
68379;SDS011;57711;53.196;19.638;2023-11-19T05:45:58;55.20;;;28.70;;
68379;SDS011;57711;53.196;19.638;2023-11-19T05:48:25;55.00;;;27.60;;
68379;SDS011;57711;53.196;19.638;2023-11-19T05:50:52;62.20;;;30.50;;
68379;SDS011;57711;53.196;19.638;2023-11-19T05:53:19;60.10;;;31.10;;
68379;SDS011;57711;53.196;19.638;2023-11-19T05:55:45;66.30;;;34.30;;
68379;SDS011;57711;53.196;19.638;2023-11-19T05:58:15;64.40;;;30.80;;
68379;SDS011;57711;53.196;19.638;2023-11-19T06:00:42;60.10;;;30.00;;
68379;SDS011;57711;53.196;19.638;2023-11-19T06:03:08;79.40;;;34.40;;
68379;SDS011;57711;53.196;19.638;2023-11-19T06:05:35;71.00;;;32.90;;
68379;SDS011;57711;53.196;19.638;2023-11-19T06:08:01;50.80;;;23.20;;
68379;SDS011;57711;53.196;19.638;2023-11-19T06:10:28;74.10;;;36.10;;
68379;SDS011;57711;53.196;19.638;2023-11-19T06:13:00;71.60;;;33.50;;
68379;SDS011;57711;53.196;19.638;2023-11-19T06:15:26;76.10;;;34.20;;
68379;SDS011;57711;53.196;19.638;2023-11-19T06:17:56;65.30;;;32.80;;
68379;SDS011;57711;53.196;19.638;2023-11-19T06:20:24;72.80;;;33.10;;
68379;SDS011;57711;53.196;19.638;2023-11-19T06:22:51;58.80;;;24.10;;
68379;SDS011;57711;53.196;19.638;2023-11-19T06:25:17;57.40;;;30.40;;
68379;SDS011;57711;53.196;19.638;2023-11-19T06:27:44;91.40;;;42.30;;
68379;SDS011;57711;53.196;19.638;2023-11-19T06:30:11;87.00;;;43.40;;
68379;SDS011;57711;53.196;19.638;2023-11-19T06:32:37;84.20;;;40.00;;
68379;SDS011;57711;53.196;19.638;2023-11-19T06:35:04;82.30;;;39.60;;
68379;SDS011;57711;53.196;19.638;2023-11-19T06:37:31;89.00;;;40.20;;
68379;SDS011;57711;53.196;19.638;2023-11-19T06:39:57;92.50;;;40.10;;
68379;SDS011;57711;53.196;19.638;2023-11-19T06:42:24;73.90;;;31.60;;
68379;SDS011;57711;53.196;19.638;2023-11-19T06:44:50;76.60;;;36.70;;
68379;SDS011;57711;53.196;19.638;2023-11-19T06:47:17;75.90;;;36.50;;
68379;SDS011;57711;53.196;19.638;2023-11-19T06:49:44;102.60;;;47.30;;
68379;SDS011;57711;53.196;19.638;2023-11-19T06:52:11;83.80;;;41.70;;
68379;SDS011;57711;53.196;19.638;2023-11-19T06:54:40;66.00;;;30.50;;
68379;SDS011;57711;53.196;19.638;2023-11-19T06:57:06;88.20;;;39.70;;
68379;SDS011;57711;53.196;19.638;2023-11-19T06:59:35;80.70;;;35.90;;
68379;SDS011;57711;53.196;19.638;2023-11-19T07:02:01;81.00;;;36.20;;
68379;SDS011;57711;53.196;19.638;2023-11-19T07:04:28;77.40;;;33.60;;
68379;SDS011;57711;53.196;19.638;2023-11-19T07:06:54;80.00;;;37.50;;
68379;SDS011;57711;53.196;19.638;2023-11-19T07:09:20;67.20;;;32.20;;
68379;SDS011;57711;53.196;19.638;2023-11-19T07:11:47;69.50;;;34.40;;
68379;SDS011;57711;53.196;19.638;2023-11-19T07:14:13;76.20;;;32.50;;
68379;SDS011;57711;53.196;19.638;2023-11-19T07:16:39;77.10;;;34.50;;
68379;SDS011;57711;53.196;19.638;2023-11-19T07:19:06;59.40;;;27.80;;
68379;SDS011;57711;53.196;19.638;2023-11-19T07:21:32;76.10;;;34.60;;
68379;SDS011;57711;53.196;19.638;2023-11-19T07:23:59;91.10;;;38.40;;
68379;SDS011;57711;53.196;19.638;2023-11-19T07:26:25;92.70;;;38.10;;
68379;SDS011;57711;53.196;19.638;2023-11-19T07:28:53;82.30;;;35.80;;
68379;SDS011;57711;53.196;19.638;2023-11-19T07:31:19;127.00;;;42.20;;
68379;SDS011;57711;53.196;19.638;2023-11-19T07:33:46;198.60;;;73.70;;
68379;SDS011;57711;53.196;19.638;2023-11-19T07:36:13;200.50;;;79.00;;
68379;SDS011;57711;53.196;19.638;2023-11-19T07:38:40;188.90;;;78.10;;
68379;SDS011;57711;53.196;19.638;2023-11-19T07:41:06;124.30;;;49.80;;
68379;SDS011;57711;53.196;19.638;2023-11-19T07:46:01;99.90;;;45.40;;
68379;SDS011;57711;53.196;19.638;2023-11-19T07:48:29;96.40;;;41.10;;
68379;SDS011;57711;53.196;19.638;2023-11-19T07:50:56;141.70;;;63.20;;
68379;SDS011;57711;53.196;19.638;2023-11-19T07:53:23;125.90;;;55.10;;
68379;SDS011;57711;53.196;19.638;2023-11-19T07:55:49;110.40;;;43.50;;
68379;SDS011;57711;53.196;19.638;2023-11-19T07:58:15;114.60;;;48.90;;
68379;SDS011;57711;53.196;19.638;2023-11-19T08:00:42;139.60;;;55.70;;
68379;SDS011;57711;53.196;19.638;2023-11-19T08:03:09;113.80;;;48.70;;
68379;SDS011;57711;53.196;19.638;2023-11-19T08:05:35;106.40;;;46.40;;
68379;SDS011;57711;53.196;19.638;2023-11-19T08:08:02;103.40;;;46.90;;
68379;SDS011;57711;53.196;19.638;2023-11-19T08:10:28;123.80;;;49.20;;
68379;SDS011;57711;53.196;19.638;2023-11-19T08:12:55;148.10;;;65.30;;
68379;SDS011;57711;53.196;19.638;2023-11-19T08:15:21;99.50;;;46.10;;
68379;SDS011;57711;53.196;19.638;2023-11-19T08:17:50;130.00;;;56.80;;
68379;SDS011;57711;53.196;19.638;2023-11-19T08:20:17;108.30;;;47.60;;
68379;SDS011;57711;53.196;19.638;2023-11-19T08:22:43;142.80;;;56.70;;
68379;SDS011;57711;53.196;19.638;2023-11-19T08:25:10;111.30;;;46.80;;
68379;SDS011;57711;53.196;19.638;2023-11-19T08:27:36;247.60;;;111.90;;
68379;SDS011;57711;53.196;19.638;2023-11-19T08:30:03;222.00;;;95.90;;
68379;SDS011;57711;53.196;19.638;2023-11-19T08:32:32;177.30;;;77.10;;
68379;SDS011;57711;53.196;19.638;2023-11-19T08:34:58;138.10;;;60.50;;
68379;SDS011;57711;53.196;19.638;2023-11-19T08:37:24;144.60;;;62.30;;
68379;SDS011;57711;53.196;19.638;2023-11-19T08:39:53;125.00;;;46.90;;
68379;SDS011;57711;53.196;19.638;2023-11-19T08:42:19;119.80;;;46.60;;
68379;SDS011;57711;53.196;19.638;2023-11-19T08:44:48;110.90;;;46.70;;
68379;SDS011;57711;53.196;19.638;2023-11-19T08:47:16;114.70;;;51.50;;
68379;SDS011;57711;53.196;19.638;2023-11-19T08:49:46;136.30;;;60.00;;
68379;SDS011;57711;53.196;19.638;2023-11-19T08:52:12;107.00;;;44.90;;
68379;SDS011;57711;53.196;19.638;2023-11-19T08:54:42;102.70;;;42.20;;
68379;SDS011;57711;53.196;19.638;2023-11-19T08:57:08;109.90;;;44.50;;
68379;SDS011;57711;53.196;19.638;2023-11-19T08:59:35;94.30;;;40.80;;
68379;SDS011;57711;53.196;19.638;2023-11-19T09:02:04;94.10;;;42.30;;
68379;SDS011;57711;53.196;19.638;2023-11-19T09:04:31;100.90;;;46.10;;
68379;SDS011;57711;53.196;19.638;2023-11-19T09:06:58;113.00;;;49.80;;
68379;SDS011;57711;53.196;19.638;2023-11-19T09:09:24;133.90;;;50.60;;
68379;SDS011;57711;53.196;19.638;2023-11-19T09:11:51;122.50;;;48.70;;
68379;SDS011;57711;53.196;19.638;2023-11-19T09:14:17;110.70;;;48.40;;
68379;SDS011;57711;53.196;19.638;2023-11-19T09:16:51;107.50;;;46.20;;
68379;SDS011;57711;53.196;19.638;2023-11-19T09:19:18;104.00;;;43.80;;
68379;SDS011;57711;53.196;19.638;2023-11-19T09:21:44;80.90;;;33.80;;
68379;SDS011;57711;53.196;19.638;2023-11-19T09:24:11;125.90;;;51.00;;
68379;SDS011;57711;53.196;19.638;2023-11-19T09:26:40;107.80;;;45.20;;
68379;SDS011;57711;53.196;19.638;2023-11-19T09:29:07;102.20;;;42.80;;
68379;SDS011;57711;53.196;19.638;2023-11-19T09:31:34;105.60;;;45.00;;
68379;SDS011;57711;53.196;19.638;2023-11-19T09:34:01;85.10;;;38.20;;
68379;SDS011;57711;53.196;19.638;2023-11-19T09:36:27;93.60;;;41.00;;
68379;SDS011;57711;53.196;19.638;2023-11-19T09:38:53;94.70;;;39.30;;
68379;SDS011;57711;53.196;19.638;2023-11-19T09:41:20;83.40;;;37.90;;
68379;SDS011;57711;53.196;19.638;2023-11-19T09:43:46;95.70;;;50.60;;
68379;SDS011;57711;53.196;19.638;2023-11-19T09:46:13;91.70;;;47.70;;
68379;SDS011;57711;53.196;19.638;2023-11-19T09:48:42;50.90;;;23.90;;
68379;SDS011;57711;53.196;19.638;2023-11-19T09:51:10;392.20;;;186.70;;
68379;SDS011;57711;53.196;19.638;2023-11-19T09:53:37;335.20;;;152.00;;
68379;SDS011;57711;53.196;19.638;2023-11-19T09:56:04;214.10;;;108.30;;
68379;SDS011;57711;53.196;19.638;2023-11-19T09:58:32;195.10;;;103.10;;
68379;SDS011;57711;53.196;19.638;2023-11-19T10:00:59;129.70;;;67.10;;
68379;SDS011;57711;53.196;19.638;2023-11-19T10:03:46;107.50;;;51.00;;
68379;SDS011;57711;53.196;19.638;2023-11-19T10:06:15;84.40;;;38.00;;
68379;SDS011;57711;53.196;19.638;2023-11-19T10:08:42;73.10;;;36.80;;
68379;SDS011;57711;53.196;19.638;2023-11-19T10:11:09;80.00;;;41.30;;
68379;SDS011;57711;53.196;19.638;2023-11-19T10:13:39;75.90;;;36.00;;
68379;SDS011;57711;53.196;19.638;2023-11-19T10:16:12;67.50;;;31.00;;
68379;SDS011;57711;53.196;19.638;2023-11-19T10:18:48;79.60;;;35.80;;
68379;SDS011;57711;53.196;19.638;2023-11-19T10:21:18;69.90;;;34.60;;
68379;SDS011;57711;53.196;19.638;2023-11-19T10:26:16;101.30;;;44.40;;
68379;SDS011;57711;53.196;19.638;2023-11-19T10:28:42;92.60;;;40.90;;
68379;SDS011;57711;53.196;19.638;2023-11-19T10:31:14;88.50;;;38.90;;
68379;SDS011;57711;53.196;19.638;2023-11-19T10:33:42;98.70;;;41.70;;
68379;SDS011;57711;53.196;19.638;2023-11-19T10:36:11;103.40;;;42.80;;
68379;SDS011;57711;53.196;19.638;2023-11-19T10:38:38;131.70;;;53.10;;
68379;SDS011;57711;53.196;19.638;2023-11-19T10:41:06;150.00;;;64.80;;
68379;SDS011;57711;53.196;19.638;2023-11-19T10:43:43;128.70;;;53.90;;
68379;SDS011;57711;53.196;19.638;2023-11-19T10:46:13;100.50;;;49.20;;
68379;SDS011;57711;53.196;19.638;2023-11-19T10:48:40;75.60;;;33.20;;
68379;SDS011;57711;53.196;19.638;2023-11-19T10:51:07;119.50;;;56.00;;
68379;SDS011;57711;53.196;19.638;2023-11-19T10:53:35;156.40;;;70.60;;
68379;SDS011;57711;53.196;19.638;2023-11-19T10:56:04;162.40;;;71.90;;
68379;SDS011;57711;53.196;19.638;2023-11-19T10:58:37;137.30;;;62.90;;
68379;SDS011;57711;53.196;19.638;2023-11-19T11:01:16;99.40;;;48.90;;
68379;SDS011;57711;53.196;19.638;2023-11-19T11:03:49;97.20;;;43.90;;
68379;SDS011;57711;53.196;19.638;2023-11-19T11:06:19;71.60;;;32.90;;
68379;SDS011;57711;53.196;19.638;2023-11-19T11:08:46;73.80;;;33.90;;
68379;SDS011;57711;53.196;19.638;2023-11-19T11:11:13;72.10;;;31.20;;
68379;SDS011;57711;53.196;19.638;2023-11-19T11:13:43;56.10;;;29.80;;
68379;SDS011;57711;53.196;19.638;2023-11-19T11:16:11;150.20;;;55.20;;
68379;SDS011;57711;53.196;19.638;2023-11-19T11:18:39;120.00;;;54.00;;
68379;SDS011;57711;53.196;19.638;2023-11-19T11:21:09;109.30;;;48.80;;
68379;SDS011;57711;53.196;19.638;2023-11-19T11:38:08;330.10;;;121.50;;
68379;SDS011;57711;53.196;19.638;2023-11-19T11:40:35;209.10;;;82.50;;
68379;SDS011;57711;53.196;19.638;2023-11-19T11:43:02;145.90;;;59.30;;
68379;SDS011;57711;53.196;19.638;2023-11-19T11:45:35;226.10;;;98.80;;
68379;SDS011;57711;53.196;19.638;2023-11-19T11:48:12;177.20;;;73.20;;
68379;SDS011;57711;53.196;19.638;2023-11-19T11:50:49;167.80;;;78.00;;
68379;SDS011;57711;53.196;19.638;2023-11-19T11:53:17;89.00;;;45.70;;
68379;SDS011;57711;53.196;19.638;2023-11-19T11:58:18;61.40;;;28.80;;
68379;SDS011;57711;53.196;19.638;2023-11-19T12:00:45;52.00;;;23.90;;
68379;SDS011;57711;53.196;19.638;2023-11-19T12:03:12;110.90;;;48.10;;
68379;SDS011;57711;53.196;19.638;2023-11-19T12:05:43;97.40;;;46.30;;
68379;SDS011;57711;53.196;19.638;2023-11-19T12:08:14;69.10;;;32.40;;
68379;SDS011;57711;53.196;19.638;2023-11-19T12:10:45;216.80;;;95.70;;
68379;SDS011;57711;53.196;19.638;2023-11-19T12:13:19;180.30;;;75.20;;
68379;SDS011;57711;53.196;19.638;2023-11-19T12:18:28;71.40;;;39.20;;
68379;SDS011;57711;53.196;19.638;2023-11-19T12:20:56;83.50;;;39.50;;
68379;SDS011;57711;53.196;19.638;2023-11-19T12:23:26;92.70;;;34.60;;
68379;SDS011;57711;53.196;19.638;2023-11-19T12:25:55;296.80;;;110.40;;
68379;SDS011;57711;53.196;19.638;2023-11-19T12:28:22;368.60;;;121.80;;
68379;SDS011;57711;53.196;19.638;2023-11-19T12:30:50;321.20;;;99.00;;
68379;SDS011;57711;53.196;19.638;2023-11-19T12:33:17;126.60;;;47.50;;
68379;SDS011;57711;53.196;19.638;2023-11-19T12:35:45;342.00;;;108.70;;
68379;SDS011;57711;53.196;19.638;2023-11-19T12:41:02;106.60;;;45.30;;
68379;SDS011;57711;53.196;19.638;2023-11-19T12:43:32;96.00;;;40.80;;
68379;SDS011;57711;53.196;19.638;2023-11-19T12:46:17;95.20;;;41.60;;
68379;SDS011;57711;53.196;19.638;2023-11-19T12:48:46;75.80;;;33.60;;
68379;SDS011;57711;53.196;19.638;2023-11-19T12:51:14;72.70;;;32.90;;
68379;SDS011;57711;53.196;19.638;2023-11-19T12:53:50;76.30;;;37.00;;
68379;SDS011;57711;53.196;19.638;2023-11-19T12:56:20;56.60;;;29.60;;
68379;SDS011;57711;53.196;19.638;2023-11-19T12:58:48;70.00;;;36.90;;
68379;SDS011;57711;53.196;19.638;2023-11-19T13:01:18;53.30;;;28.60;;
68379;SDS011;57711;53.196;19.638;2023-11-19T13:03:47;109.60;;;46.40;;
68379;SDS011;57711;53.196;19.638;2023-11-19T13:06:14;65.20;;;32.20;;
68379;SDS011;57711;53.196;19.638;2023-11-19T13:08:42;42.70;;;25.20;;
68379;SDS011;57711;53.196;19.638;2023-11-19T13:11:10;66.70;;;34.80;;
68379;SDS011;57711;53.196;19.638;2023-11-19T13:16:25;57.00;;;29.80;;
68379;SDS011;57711;53.196;19.638;2023-11-19T13:18:53;52.30;;;25.60;;
68379;SDS011;57711;53.196;19.638;2023-11-19T13:21:20;53.30;;;28.40;;
68379;SDS011;57711;53.196;19.638;2023-11-19T13:23:46;56.90;;;33.10;;
68379;SDS011;57711;53.196;19.638;2023-11-19T13:26:13;55.20;;;29.80;;
68379;SDS011;57711;53.196;19.638;2023-11-19T13:28:39;48.50;;;27.00;;
68379;SDS011;57711;53.196;19.638;2023-11-19T13:31:05;46.30;;;27.20;;
68379;SDS011;57711;53.196;19.638;2023-11-19T13:33:32;59.30;;;29.90;;
68379;SDS011;57711;53.196;19.638;2023-11-19T13:35:59;133.70;;;56.60;;
68379;SDS011;57711;53.196;19.638;2023-11-19T13:38:32;78.80;;;41.80;;
68379;SDS011;57711;53.196;19.638;2023-11-19T13:40:58;99.20;;;42.00;;
68379;SDS011;57711;53.196;19.638;2023-11-19T13:43:25;67.10;;;34.60;;
68379;SDS011;57711;53.196;19.638;2023-11-19T13:45:54;111.70;;;51.50;;
68379;SDS011;57711;53.196;19.638;2023-11-19T13:48:21;72.30;;;38.60;;
68379;SDS011;57711;53.196;19.638;2023-11-19T13:50:48;134.00;;;60.70;;
68379;SDS011;57711;53.196;19.638;2023-11-19T13:53:14;94.70;;;45.80;;
68379;SDS011;57711;53.196;19.638;2023-11-19T13:55:41;79.50;;;41.10;;
68379;SDS011;57711;53.196;19.638;2023-11-19T13:58:08;99.70;;;44.50;;
68379;SDS011;57711;53.196;19.638;2023-11-19T14:00:34;177.80;;;71.10;;
68379;SDS011;57711;53.196;19.638;2023-11-19T14:03:01;102.50;;;50.10;;
68379;SDS011;57711;53.196;19.638;2023-11-19T14:05:28;73.40;;;38.70;;
68379;SDS011;57711;53.196;19.638;2023-11-19T14:07:58;71.60;;;38.70;;
68379;SDS011;57711;53.196;19.638;2023-11-19T14:10:24;182.90;;;66.00;;
68379;SDS011;57711;53.196;19.638;2023-11-19T14:12:50;202.60;;;86.40;;
68379;SDS011;57711;53.196;19.638;2023-11-19T14:15:17;97.00;;;49.20;;
68379;SDS011;57711;53.196;19.638;2023-11-19T14:17:43;76.00;;;38.80;;
68379;SDS011;57711;53.196;19.638;2023-11-19T14:20:10;102.80;;;50.20;;
68379;SDS011;57711;53.196;19.638;2023-11-19T14:22:41;125.70;;;62.10;;
68379;SDS011;57711;53.196;19.638;2023-11-19T14:25:09;113.30;;;56.40;;
68379;SDS011;57711;53.196;19.638;2023-11-19T14:27:39;75.50;;;40.20;;
68379;SDS011;57711;53.196;19.638;2023-11-19T14:30:08;73.00;;;39.70;;
68379;SDS011;57711;53.196;19.638;2023-11-19T14:32:44;70.00;;;37.80;;
68379;SDS011;57711;53.196;19.638;2023-11-19T14:35:12;62.70;;;36.30;;
68379;SDS011;57711;53.196;19.638;2023-11-19T14:37:38;49.90;;;27.10;;
68379;SDS011;57711;53.196;19.638;2023-11-19T14:40:05;50.80;;;28.90;;
68379;SDS011;57711;53.196;19.638;2023-11-19T14:42:34;45.20;;;27.70;;
68379;SDS011;57711;53.196;19.638;2023-11-19T14:45:01;64.70;;;33.80;;
68379;SDS011;57711;53.196;19.638;2023-11-19T14:47:27;67.80;;;36.70;;